SBOSBO IAD / KIAD
Speedbird OnlineSpeedbird Online IAD / KIAD

Washington Dulles International Airport
14:01 8.7°C

Location Washington, United States
Latitude: 38.94449997
Longitude: -77.45580292
Web Airport Website | Wikipedia
Altitude 95 Meter / 312 Feet
Distance 5,938 KM / 3,690 Miles
from London.
Time Zone UTC -5 hours (America/New_York)
Codes IATA: IAD
ICAO: KIAD
Currency £1 equals USD 1.22
Runways
RunwayLength (m)Surface
01C3506CONC-G
01L3506Concrete
01R3505Concrete
123201Concrete
19C3506CONC-G
19L3505Concrete
19R3506Concrete
303201Concrete
Radio
TypeDescriptionFrequency
APPPOTOMAC APP120.45
ATISATIS134.85
CLDCLNC DEL135.7
DEPPOTOMAC DEP125.05
GNDGND121.9
RCOARMEL RCO113.5
RMPRAMP CON129.55
TWRTWR120.1
UNICUNICOM122.95
Live ATC
METAR KIAD 091752Z 34005KT 10SM CLR 09/M02 A3027 RMK AO2 SLP251 T00941022 10094 20033 58014
TAF KIAD 091722Z 0918/1024 02005KT P6SM FEW250 FM101500 05004KT P6SM SCT120 FM102200 09003KT P6SM SCT120
Weather As Of 09 Dec 2022 14:01
Description Clear sky
Wind 11 km/h from North-East (40°)
Cloud Cover 0%
Precipitation Rain: none, Snow: none
Sunrise 07:17
Sunset 16:47
Lounges British Airways Lounge (Open), Concourse B
Turkish Airlines Lounge , Terminal B
Rotations During the last 90 days there were
146 flights from LHR
1 flights from KIN
142 flights to LHR
1 flights to YYT
1 flights to ORD
1 flights to LGW


© 2017-2022 Speedbird Online